Time;durP1;ratioP1;P1;durP2;ratioP2;P2;SDS_P1;SDS_P2;PMS_P1;PMS_P2;Temp;Humidity;BMP_temperature;BMP_pressure;BME280_temperature;BME280_humidity;BME280_pressure;Samples;Min_cycle;Max_cycle;Signal;HPM_P1;HPM_P2
2022/03/08 00:02:12;;;;;;;8.85;1.80;;;19.20;76.40;;;;;;4982253;28;95844;-68
2022/03/08 00:04:43;;;;;;;9.93;2.58;;;19.10;76.70;;;;;;4968226;28;95793;-68
2022/03/08 00:07:13;;;;;;;12.20;2.00;;;19.20;76.30;;;;;;4966887;28;96052;-65
2022/03/08 00:09:46;;;;;;;8.65;2.22;;;19.20;76.80;;;;;;4967342;28;96394;-69
2022/03/08 00:12:17;;;;;;;10.05;1.48;;;19.30;76.30;;;;;;4964188;28;96326;-62
2022/03/08 00:14:48;;;;;;;11.07;1.75;;;19.30;75.40;;;;;;4965200;28;95286;-70
2022/03/08 00:17:24;;;;;;;6.43;1.60;;;19.40;75.90;;;;;;4955368;28;95795;-71
2022/03/08 00:19:55;;;;;;;8.10;2.10;;;19.50;75.50;;;;;;4966871;28;96403;-69
2022/03/08 00:22:27;;;;;;;;;;;19.60;75.10;;;;;;4967788;28;96124;-69
2022/03/08 00:24:57;;;;;;;10.25;2.22;;;19.50;74.40;;;;;;4967490;28;95860;-63
2022/03/08 00:27:28;;;;;;;;;;;19.50;74.90;;;;;;4966848;28;96117;-65
2022/03/08 00:29:58;;;;;;;11.85;2.22;;;19.60;74.80;;;;;;4958001;28;96694;-63
2022/03/08 00:32:31;;;;;;;7.47;1.80;;;19.70;74.80;;;;;;4943708;28;95445;-66
2022/03/08 00:35:03;;;;;;;8.48;2.50;;;19.90;74.80;;;;;;4977010;28;95816;-63
2022/03/08 00:37:36;;;;;;;5.05;1.73;;;20.10;74.20;;;;;;4976553;28;96024;-62
2022/03/08 00:40:08;;;;;;;6.28;1.35;;;20.10;73.60;;;;;;4946068;28;97485;-65
2022/03/08 00:42:40;;;;;;;6.07;1.63;;;20.20;73.30;;;;;;4944888;28;95838;-66
2022/03/08 00:45:12;;;;;;;6.55;2.03;;;20.30;72.40;;;;;;4969005;28;96032;-63
2022/03/08 00:47:44;;;;;;;8.73;1.85;;;20.30;73.20;;;;;;4965013;28;95472;-62
2022/03/08 00:50:22;;;;;;;5.25;1.50;;;20.30;72.60;;;;;;4963166;28;98571;-64
2022/03/08 00:52:54;;;;;;;6.45;2.30;;;20.40;72.80;;;;;;4979640;28;97499;-63
2022/03/08 00:55:29;;;;;;;6.55;1.77;;;20.40;72.30;;;;;;4966161;28;95708;-66
2022/03/08 00:57:59;;;;;;;9.05;1.70;;;20.50;72.50;;;;;;4947252;28;95946;-71
2022/03/08 01:00:32;;;;;;;9.40;1.70;;;20.50;71.80;;;;;;4957466;28;96090;-64
2022/03/08 01:03:03;;;;;;;4.97;1.65;;;20.60;71.90;;;;;;4963176;28;95901;-63
2022/03/08 01:05:34;;;;;;;;;;;20.70;71.60;;;;;;4965280;28;96225;-65
2022/03/08 01:08:04;;;;;;;8.70;2.63;;;20.70;71.40;;;;;;4966446;28;95596;-66
2022/03/08 01:10:34;;;;;;;6.93;1.93;;;20.80;71.10;;;;;;4964983;28;95961;-66
2022/03/08 01:13:06;;;;;;;11.48;2.25;;;20.80;70.60;;;;;;4993178;28;97507;-65
2022/03/08 01:15:38;;;;;;;7.05;1.90;;;20.70;69.90;;;;;;4957151;28;96111;-65
2022/03/08 01:18:11;;;;;;;7.28;1.70;;;20.70;70.60;;;;;;4965683;28;97746;-63
2022/03/08 01:20:42;;;;;;;6.90;1.85;;;20.70;69.50;;;;;;4964617;28;95842;-65
2022/03/08 01:23:12;;;;;;;8.30;2.05;;;20.70;70.20;;;;;;4965531;28;95975;-64
2022/03/08 01:25:43;;;;;;;5.43;1.25;;;20.80;70.60;;;;;;4966153;28;95362;-64
2022/03/08 01:28:14;;;;;;;5.72;1.73;;;20.90;70.40;;;;;;4963798;28;95340;-65
2022/03/08 01:30:46;;;;;;;2.88;1.40;;;20.90;70.10;;;;;;4948091;28;98776;-63
2022/03/08 01:33:18;;;;;;;3.80;1.65;;;21.00;70.10;;;;;;4975138;28;97689;-63
2022/03/08 01:35:49;;;;;;;3.47;1.38;;;21.00;70.10;;;;;;4960448;28;95746;-64
2022/03/08 01:38:20;;;;;;;4.25;1.60;;;21.00;70.20;;;;;;4964264;28;95890;-63
2022/03/08 01:40:52;;;;;;;6.55;1.60;;;21.00;69.90;;;;;;4965062;28;95824;-68
2022/03/08 01:43:22;;;;;;;5.63;1.50;;;21.00;69.80;;;;;;4965214;28;97051;-65
2022/03/08 01:45:55;;;;;;;9.68;2.15;;;21.00;70.00;;;;;;4958448;28;95872;-67
2022/03/08 01:48:28;;;;;;;6.50;2.20;;;21.00;69.50;;;;;;4947812;28;95832;-65
2022/03/08 01:50:59;;;;;;;8.23;3.03;;;20.90;69.20;;;;;;4964304;28;95848;-65
2022/03/08 01:53:31;;;;;;;5.70;1.55;;;21.10;70.10;;;;;;4961072;28;96048;-70
2022/03/08 01:56:02;;;;;;;4.40;1.27;;;21.20;70.10;;;;;;4965104;28;96035;-65
2022/03/08 01:58:35;;;;;;;3.80;1.30;;;21.30;69.90;;;;;;4964404;28;95317;-64
2022/03/08 02:01:07;;;;;;;5.55;1.42;;;21.40;70.10;;;;;;4957435;28;98841;-66
2022/03/08 02:03:39;;;;;;;4.10;1.23;;;21.50;69.80;;;;;;4964032;28;96017;-65
2022/03/08 02:06:10;;;;;;;;;;;21.50;70.00;;;;;;4965035;28;96063;-65
2022/03/08 02:08:41;;;;;;;4.18;1.38;;;21.60;69.80;;;;;;4965395;28;95859;-64
2022/03/08 02:11:12;;;;;;;3.95;1.50;;;21.60;69.90;;;;;;4962803;28;95888;-65
2022/03/08 02:13:43;;;;;;;2.92;1.35;;;21.70;69.80;;;;;;4964656;28;96069;-65
2022/03/08 02:16:14;;;;;;;3.50;1.08;;;21.70;69.70;;;;;;4957149;28;95868;-63
2022/03/08 02:18:45;;;;;;;;;;;21.90;69.80;;;;;;4965640;28;95735;-65
2022/03/08 02:21:15;;;;;;;5.40;1.60;;;21.90;69.70;;;;;;4966068;28;96593;-66
2022/03/08 02:23:49;;;;;;;2.10;0.93;;;21.90;69.50;;;;;;4947744;28;95763;-66
2022/03/08 02:26:23;;;;;;;2.83;0.90;;;22.00;69.00;;;;;;4962766;28;97717;-67
2022/03/08 02:28:54;;;;;;;5.15;1.70;;;22.00;69.40;;;;;;4954895;28;95869;-67
2022/03/08 02:31:24;;;;;;;4.45;1.02;;;22.10;69.30;;;;;;4948026;28;96480;-64
2022/03/08 02:33:55;;;;;;;;;;;22.10;69.40;;;;;;4964065;28;96211;-63
2022/03/08 02:36:26;;;;;;;7.97;1.47;;;22.20;69.30;;;;;;4978231;28;96688;-64
2022/03/08 02:38:57;;;;;;;1.92;0.90;;;22.20;69.10;;;;;;4964684;28;95291;-65
2022/03/08 02:41:28;;;;;;;3.10;1.00;;;22.30;69.00;;;;;;4964541;28;97148;-63
2022/03/08 02:43:58;;;;;;;1.52;1.15;;;22.30;68.60;;;;;;4962497;28;95320;-67
2022/03/08 02:46:30;;;;;;;5.15;1.48;;;22.40;68.90;;;;;;4957625;28;98090;-65
2022/03/08 02:49:00;;;;;;;4.25;1.40;;;22.30;67.40;;;;;;4965728;28;96052;-67
2022/03/08 02:51:31;;;;;;;2.97;1.40;;;22.20;67.50;;;;;;4964878;28;96754;-65
2022/03/08 02:54:02;;;;;;;7.38;1.90;;;22.10;66.40;;;;;;4964480;28;96259;-64
2022/03/08 02:56:33;;;;;;;6.30;1.70;;;22.00;66.00;;;;;;4964014;28;96788;-65
2022/03/08 02:59:03;;;;;;;;;;;21.90;65.90;;;;;;4962671;28;96599;-67
2022/03/08 03:01:35;;;;;;;8.00;2.33;;;21.90;67.20;;;;;;4955673;28;95870;-65
2022/03/08 03:04:06;;;;;;;5.32;1.33;;;21.90;66.80;;;;;;4992275;28;96167;-64
2022/03/08 03:06:38;;;;;;;4.32;2.10;;;21.90;66.60;;;;;;4964050;28;96233;-64
2022/03/08 03:09:09;;;;;;;3.15;1.50;;;21.90;67.20;;;;;;4963866;28;95746;-67
2022/03/08 03:11:41;;;;;;;7.47;1.58;;;22.00;66.40;;;;;;4963117;28;96417;-65
2022/03/08 03:14:12;;;;;;;7.90;1.58;;;22.00;65.40;;;;;;4963360;28;96486;-64
2022/03/08 03:16:43;;;;;;;4.03;1.42;;;22.00;66.50;;;;;;4952150;28;95387;-67
2022/03/08 03:19:16;;;;;;;5.72;1.60;;;22.00;66.10;;;;;;4978375;28;96037;-70
2022/03/08 03:21:47;;;;;;;6.38;1.15;;;22.00;66.00;;;;;;4964017;28;96793;-66
2022/03/08 03:24:17;;;;;;;4.40;1.27;;;21.90;66.00;;;;;;4963512;28;96440;-69
2022/03/08 03:26:48;;;;;;;3.95;1.38;;;21.90;66.50;;;;;;4964206;28;96097;-64
2022/03/08 03:29:19;;;;;;;4.57;1.20;;;21.90;66.00;;;;;;4957349;28;96141;-62
2022/03/08 03:31:50;;;;;;;5.30;1.85;;;21.90;66.50;;;;;;4938070;28;95871;-63
2022/03/08 03:34:21;;;;;;;;;;;21.90;65.90;;;;;;4942882;28;96359;-64
2022/03/08 03:36:52;;;;;;;4.70;1.40;;;21.90;65.90;;;;;;4945115;28;95901;-64
2022/03/08 03:39:23;;;;;;;6.28;1.85;;;21.80;65.90;;;;;;4943858;28;95820;-64
2022/03/08 03:41:53;;;;;;;3.60;1.45;;;21.70;65.90;;;;;;4937648;28;96758;-66
2022/03/08 03:44:23;;;;;;;3.90;1.38;;;21.70;65.90;;;;;;4942887;28;95898;-62
2022/03/08 03:46:56;;;;;;;3.63;1.48;;;21.60;64.90;;;;;;4947980;28;97260;-70
2022/03/08 03:49:28;;;;;;;5.25;1.38;;;21.70;66.70;;;;;;4963982;28;95861;-64
2022/03/08 03:52:00;;;;;;;4.28;1.40;;;21.70;66.10;;;;;;4962865;28;96463;-63
2022/03/08 03:54:31;;;;;;;4.18;1.75;;;21.80;65.60;;;;;;4964981;28;95877;-65
2022/03/08 03:57:02;;;;;;;6.20;2.22;;;21.70;65.50;;;;;;4966838;28;95892;-64
2022/03/08 03:59:32;;;;;;;4.37;1.53;;;21.70;66.00;;;;;;4967133;28;95919;-63
2022/03/08 04:02:04;;;;;;;;;;;21.80;65.70;;;;;;4959434;28;95929;-64
2022/03/08 04:04:35;;;;;;;5.13;1.35;;;21.80;66.30;;;;;;4966550;28;96667;-63
2022/03/08 04:07:06;;;;;;;2.85;1.30;;;21.90;66.10;;;;;;4981118;28;96247;-64
2022/03/08 04:09:37;;;;;;;2.53;1.30;;;22.00;66.40;;;;;;4967319;28;95850;-72
2022/03/08 04:12:09;;;;;;;6.05;1.60;;;22.00;66.30;;;;;;4965835;28;95860;-64
2022/03/08 04:14:40;;;;;;;4.57;1.30;;;22.00;66.10;;;;;;4966332;28;95902;-64
2022/03/08 04:17:11;;;;;;;5.78;1.48;;;22.00;65.70;;;;;;4961222;28;96717;-65
2022/03/08 04:19:42;;;;;;;7.20;1.92;;;22.10;66.10;;;;;;4967600;28;95903;-64
2022/03/08 04:22:13;;;;;;;6.10;2.15;;;22.10;66.00;;;;;;4965260;28;95886;-64
2022/03/08 04:24:43;;;;;;;4.70;1.63;;;22.10;65.50;;;;;;4964542;28;96077;-69
2022/03/08 04:27:14;;;;;;;8.32;1.77;;;22.20;66.20;;;;;;4965840;28;96496;-69
2022/03/08 04:29:45;;;;;;;9.13;1.67;;;22.20;66.20;;;;;;4957907;28;96053;-63
2022/03/08 04:32:16;;;;;;;4.47;1.35;;;22.30;64.50;;;;;;4952858;28;98353;-64
2022/03/08 04:34:47;;;;;;;6.07;1.23;;;22.30;65.50;;;;;;4966922;28;95791;-67
2022/03/08 04:37:22;;;;;;;6.60;1.52;;;22.20;65.40;;;;;;4981762;28;96540;-67
2022/03/08 04:39:53;;;;;;;6.13;2.17;;;22.30;65.50;;;;;;4963429;28;95539;-69
2022/03/08 04:42:24;;;;;;;3.35;1.45;;;22.30;65.80;;;;;;4966182;28;95836;-67
2022/03/08 04:44:55;;;;;;;4.38;1.67;;;22.30;65.80;;;;;;4966362;28;95888;-68
2022/03/08 04:47:27;;;;;;;4.72;1.52;;;22.40;65.90;;;;;;4961554;28;95867;-72
2022/03/08 04:49:58;;;;;;;4.90;0.93;;;22.40;65.90;;;;;;4967536;28;95674;-66
2022/03/08 04:52:29;;;;;;;8.02;1.40;;;22.50;65.90;;;;;;4967773;28;95997;-67
2022/03/08 04:54:59;;;;;;;5.03;1.50;;;22.40;65.50;;;;;;4981660;28;95374;-68
2022/03/08 04:57:29;;;;;;;5.32;1.60;;;22.50;65.50;;;;;;4966552;28;95440;-64
2022/03/08 05:00:00;;;;;;;4.35;1.63;;;22.40;65.70;;;;;;4965884;28;95898;-65
2022/03/08 05:02:34;;;;;;;3.40;1.38;;;22.40;65.30;;;;;;4959185;28;96115;-65
2022/03/08 05:05:10;;;;;;;5.38;1.70;;;22.40;65.70;;;;;;4959934;28;96185;-64
2022/03/08 05:07:43;;;;;;;3.92;1.65;;;22.50;65.60;;;;;;4946884;28;95728;-62
2022/03/08 05:10:14;;;;;;;4.18;1.20;;;22.50;65.50;;;;;;4946568;28;95794;-66
2022/03/08 05:12:46;;;;;;;3.20;1.08;;;22.50;65.70;;;;;;4943834;28;96040;-71
2022/03/08 05:15:16;;;;;;;3.00;1.33;;;22.40;64.40;;;;;;4935711;28;96646;-72
2022/03/08 05:17:48;;;;;;;8.98;1.83;;;22.40;64.90;;;;;;4966380;28;96510;-64
2022/03/08 05:20:18;;;;;;;;;;;22.30;64.90;;;;;;4968033;28;95829;-71
2022/03/08 05:22:48;;;;;;;4.57;1.33;;;22.30;65.00;;;;;;4965862;28;97870;-71
2022/03/08 05:25:19;;;;;;;5.65;1.73;;;22.30;65.30;;;;;;4965901;28;95963;-72
2022/03/08 05:27:50;;;;;;;;;;;22.30;65.20;;;;;;4967322;28;95870;-65
2022/03/08 05:30:20;;;;;;;3.58;1.42;;;22.30;64.70;;;;;;4952689;28;96271;-70
2022/03/08 05:32:50;;;;;;;5.60;1.80;;;22.30;65.00;;;;;;4961880;28;97704;-72
2022/03/08 05:35:22;;;;;;;;;;;22.20;64.70;;;;;;4966159;28;96019;-67
2022/03/08 05:37:55;;;;;;;4.53;1.17;;;22.20;65.50;;;;;;4992619;28;95757;-69
2022/03/08 05:40:26;;;;;;;4.20;1.52;;;22.30;65.90;;;;;;4965361;28;95700;-70
2022/03/08 05:43:00;;;;;;;3.05;1.25;;;22.30;65.70;;;;;;4965551;28;96457;-66
2022/03/08 05:45:34;;;;;;;2.17;1.10;;;22.40;65.90;;;;;;4957436;28;99306;-72
2022/03/08 05:48:07;;;;;;;3.80;1.25;;;22.30;65.20;;;;;;4978320;28;95399;-68
2022/03/08 05:50:37;;;;;;;6.60;1.58;;;22.40;65.80;;;;;;4962586;28;96489;-66
2022/03/08 05:53:08;;;;;;;4.50;1.67;;;22.40;65.50;;;;;;4965463;28;95860;-66
2022/03/08 05:55:38;;;;;;;5.30;1.65;;;22.40;65.20;;;;;;4964035;28;95964;-67
2022/03/08 05:58:09;;;;;;;4.47;1.33;;;22.30;65.30;;;;;;4966085;28;95721;-66
2022/03/08 06:00:40;;;;;;;6.28;1.40;;;22.40;65.60;;;;;;4957679;28;95797;-65
2022/03/08 06:03:11;;;;;;;;;;;22.30;64.80;;;;;;4964866;28;97880;-65
2022/03/08 06:05:41;;;;;;;8.43;1.85;;;22.20;64.60;;;;;;4965941;28;96128;-69
2022/03/08 06:08:11;;;;;;;6.22;1.67;;;22.00;65.70;;;;;;4964725;28;96001;-65
2022/03/08 06:10:41;;;;;;;6.55;1.70;;;22.00;65.70;;;;;;4965772;28;95317;-70
2022/03/08 06:13:13;;;;;;;5.72;1.73;;;21.80;66.30;;;;;;4965903;28;95910;-69
2022/03/08 06:15:44;;;;;;;5.60;2.00;;;21.70;65.80;;;;;;4958435;28;97833;-67
2022/03/08 06:18:16;;;;;;;3.97;1.60;;;21.40;66.20;;;;;;4963533;28;96110;-64
2022/03/08 06:20:46;;;;;;;;;;;21.30;66.80;;;;;;4964077;28;95386;-65
2022/03/08 06:23:17;;;;;;;5.07;1.42;;;21.10;67.90;;;;;;4965740;28;96398;-64
2022/03/08 06:25:48;;;;;;;6.00;2.08;;;21.20;69.00;;;;;;4962005;28;95672;-64
2022/03/08 06:28:19;;;;;;;3.75;1.20;;;21.10;68.30;;;;;;4962216;28;95937;-64
2022/03/08 06:30:49;;;;;;;1.90;1.00;;;20.90;69.30;;;;;;4949961;28;95836;-64
2022/03/08 06:33:19;;;;;;;3.35;1.50;;;20.70;69.50;;;;;;4964228;28;96695;-65
2022/03/08 06:35:53;;;;;;;3.80;1.55;;;20.60;70.10;;;;;;4963854;28;96524;-63
2022/03/08 06:38:25;;;;;;;2.72;1.40;;;20.70;70.00;;;;;;4963746;28;95385;-63
2022/03/08 06:40:56;;;;;;;6.43;1.67;;;20.90;70.50;;;;;;4965941;28;95998;-63
2022/03/08 06:43:27;;;;;;;5.32;1.98;;;21.10;70.40;;;;;;4964276;28;96315;-65
2022/03/08 06:45:58;;;;;;;5.40;1.95;;;21.20;69.20;;;;;;4957180;28;96149;-66
2022/03/08 06:48:36;;;;;;;13.80;2.55;;;21.30;68.70;;;;;;4964700;28;95737;-64
2022/03/08 06:51:09;;;;;;;8.98;2.13;;;21.30;68.30;;;;;;4965368;28;95772;-66
2022/03/08 06:53:40;;;;;;;5.75;1.85;;;21.10;68.70;;;;;;4963362;28;96074;-66
2022/03/08 06:56:10;;;;;;;7.60;1.97;;;21.20;69.50;;;;;;4964391;28;95773;-65
2022/03/08 06:58:42;;;;;;;6.03;1.65;;;21.30;68.70;;;;;;4979695;28;95388;-66
2022/03/08 07:01:15;;;;;;;4.50;1.45;;;21.30;69.50;;;;;;4957218;28;96622;-65
2022/03/08 07:03:46;;;;;;;8.02;1.88;;;21.30;69.20;;;;;;4978122;28;98560;-65
2022/03/08 07:06:17;;;;;;;9.70;2.53;;;21.30;69.80;;;;;;4964469;28;96408;-65
2022/03/08 07:08:48;;;;;;;11.38;1.90;;;21.20;70.20;;;;;;4964671;28;95908;-64
2022/03/08 07:11:18;;;;;;;7.20;2.20;;;21.10;71.20;;;;;;4964938;28;95722;-64
2022/03/08 07:13:50;;;;;;;6.03;1.38;;;21.10;72.20;;;;;;4965771;28;98506;-65
2022/03/08 07:16:21;;;;;;;8.35;2.13;;;21.00;72.40;;;;;;4957680;28;95798;-63
2022/03/08 07:18:52;;;;;;;6.18;1.95;;;20.90;73.20;;;;;;4965097;28;96148;-64
2022/03/08 07:21:24;;;;;;;5.80;2.33;;;20.90;73.70;;;;;;4964606;28;95792;-64
2022/03/08 07:23:56;;;;;;;9.38;2.90;;;20.90;73.90;;;;;;4978501;28;96634;-65
2022/03/08 07:26:27;;;;;;;10.07;2.90;;;20.80;73.80;;;;;;4962731;28;98036;-64
2022/03/08 07:28:57;;;;;;;12.27;3.95;;;20.70;74.10;;;;;;4960911;28;95365;-65
2022/03/08 07:31:27;;;;;;;15.30;4.15;;;20.40;73.90;;;;;;4953755;28;95938;-64
2022/03/08 07:33:59;;;;;;;20.70;5.53;;;20.50;74.50;;;;;;4967486;28;96486;-64
2022/03/08 07:36:31;;;;;;;12.57;4.53;;;20.60;74.20;;;;;;4966393;28;95476;-64
2022/03/08 07:39:03;;;;;;;15.55;5.60;;;20.60;74.50;;;;;;4967462;28;95911;-64
2022/03/08 07:41:34;;;;;;;16.95;5.10;;;20.50;74.70;;;;;;4966591;28;96089;-64
2022/03/08 07:44:05;;;;;;;15.20;4.72;;;20.50;75.10;;;;;;4964490;28;95918;-64
2022/03/08 07:46:37;;;;;;;14.95;5.20;;;20.40;74.70;;;;;;4960221;28;96782;-65
2022/03/08 07:49:06;;;;;;;;;;;20.50;75.10;;;;;;4967987;28;96339;-65
2022/03/08 07:51:50;;;;;;;20.10;5.53;;;20.50;74.90;;;;;;4967629;28;96364;-66
2022/03/08 07:54:21;;;;;;;13.48;4.25;;;20.50;74.90;;;;;;4967472;28;96470;-65
2022/03/08 07:56:51;;;;;;;12.03;5.13;;;20.50;75.10;;;;;;4967316;28;97028;-64
2022/03/08 07:59:21;;;;;;;15.90;5.07;;;20.40;75.20;;;;;;4963255;28;96579;-65
2022/03/08 08:01:52;;;;;;;;;;;20.40;75.50;;;;;;4959484;28;96252;-65
2022/03/08 08:04:23;;;;;;;12.05;3.78;;;20.40;75.10;;;;;;4967489;28;95714;-65
2022/03/08 08:06:53;;;;;;;14.77;4.63;;;20.40;75.20;;;;;;4964939;28;96157;-65
2022/03/08 08:09:24;;;;;;;10.07;3.78;;;20.50;75.30;;;;;;4965645;28;95859;-64
2022/03/08 08:11:55;;;;;;;12.30;4.20;;;20.40;75.30;;;;;;4965196;28;96444;-66
2022/03/08 08:14:26;;;;;;;;;;;20.50;75.30;;;;;;4965461;28;95910;-64
2022/03/08 08:16:57;;;;;;;11.63;4.25;;;20.40;74.40;;;;;;4957909;28;96353;-65
2022/03/08 08:19:28;;;;;;;12.30;4.30;;;20.30;75.10;;;;;;4964677;28;96053;-65
2022/03/08 08:21:59;;;;;;;10.80;3.70;;;20.40;75.20;;;;;;4965550;28;95708;-65
2022/03/08 08:24:30;;;;;;;13.20;3.60;;;20.30;74.50;;;;;;4964323;28;96452;-64
2022/03/08 08:27:04;;;;;;;9.55;3.45;;;20.20;74.30;;;;;;4965888;28;95903;-65
2022/03/08 08:29:35;;;;;;;14.18;4.82;;;20.20;75.50;;;;;;4958010;28;95861;-63
2022/03/08 08:32:06;;;;;;;9.90;3.85;;;20.20;75.80;;;;;;4953951;28;96332;-65
2022/03/08 08:34:37;;;;;;;10.32;3.45;;;20.20;76.10;;;;;;4964859;28;95927;-65
2022/03/08 08:37:09;;;;;;;8.93;3.42;;;20.20;76.30;;;;;;4965819;28;95846;-65
2022/03/08 08:39:41;;;;;;;8.50;2.55;;;20.10;76.30;;;;;;4967023;28;97938;-64
2022/03/08 08:42:12;;;;;;;12.13;3.42;;;20.20;76.50;;;;;;4966740;28;96522;-64
2022/03/08 08:44:47;;;;;;;8.68;2.90;;;20.30;76.30;;;;;;4965660;28;96586;-63
2022/03/08 08:47:19;;;;;;;6.93;2.65;;;20.50;75.60;;;;;;4972359;28;96067;-64
2022/03/08 08:49:49;;;;;;;15.13;4.30;;;20.70;74.70;;;;;;4960666;28;96105;-64
2022/03/08 08:52:19;;;;;;;11.73;3.17;;;20.80;74.30;;;;;;4965010;28;95920;-64
2022/03/08 08:54:50;;;;;;;8.80;2.22;;;20.90;73.80;;;;;;4966036;28;96389;-63
2022/03/08 08:57:20;;;;;;;6.30;2.38;;;20.90;73.20;;;;;;4981603;28;95812;-63
2022/03/08 08:59:51;;;;;;;6.40;2.25;;;20.90;73.10;;;;;;4965788;28;95625;-64
2022/03/08 09:02:23;;;;;;;7.93;2.15;;;20.80;73.10;;;;;;4957492;28;95795;-63
2022/03/08 09:04:54;;;;;;;9.05;3.25;;;20.80;72.80;;;;;;4965027;28;96586;-63
2022/03/08 09:07:24;;;;;;;7.38;3.17;;;20.80;72.80;;;;;;4963485;28;96048;-63
2022/03/08 09:09:54;;;;;;;5.10;2.20;;;20.80;72.90;;;;;;4965479;28;98211;-64
2022/03/08 09:12:25;;;;;;;10.23;2.72;;;20.80;72.30;;;;;;4981122;28;96561;-64
2022/03/08 09:14:57;;;;;;;8.50;2.63;;;20.90;72.50;;;;;;4965456;28;96399;-64
2022/03/08 09:17:28;;;;;;;5.55;2.22;;;20.80;72.10;;;;;;4972541;28;98809;-63
2022/03/08 09:20:00;;;;;;;6.15;2.45;;;20.90;72.00;;;;;;4975132;28;95945;-64
2022/03/08 09:22:31;;;;;;;8.50;2.45;;;20.90;72.00;;;;;;4944901;28;95820;-63
2022/03/08 09:25:01;;;;;;;7.17;2.77;;;20.90;71.90;;;;;;4943374;28;96496;-64
2022/03/08 09:27:34;;;;;;;8.80;3.17;;;20.90;71.50;;;;;;4945128;28;96151;-64
2022/03/08 09:30:06;;;;;;;6.10;2.75;;;20.90;71.50;;;;;;4937679;28;96098;-63
2022/03/08 09:32:36;;;;;;;6.95;2.70;;;20.90;71.00;;;;;;4966855;28;97735;-64
2022/03/08 09:35:08;;;;;;;12.30;2.63;;;20.90;71.30;;;;;;4945898;28;95896;-64
2022/03/08 09:37:40;;;;;;;6.35;2.67;;;20.90;71.30;;;;;;4943271;28;96089;-63
2022/03/08 09:40:12;;;;;;;8.93;2.67;;;20.90;70.90;;;;;;4946295;28;95856;-63
2022/03/08 09:42:44;;;;;;;6.45;2.08;;;20.90;70.40;;;;;;4947913;28;95704;-63
2022/03/08 09:45:17;;;;;;;9.38;2.60;;;20.90;70.80;;;;;;4969072;28;97175;-64
2022/03/08 09:47:49;;;;;;;8.27;2.70;;;20.90;71.00;;;;;;4945810;28;95743;-64
2022/03/08 09:50:19;;;;;;;6.93;2.28;;;20.90;70.70;;;;;;4945882;28;95692;-63
2022/03/08 09:52:49;;;;;;;7.70;2.50;;;21.00;70.80;;;;;;4944200;28;95723;-63
2022/03/08 09:55:19;;;;;;;10.23;3.15;;;20.90;70.40;;;;;;4943362;28;95883;-62
2022/03/08 09:57:50;;;;;;;5.32;2.08;;;21.00;70.70;;;;;;4942076;28;96232;-63
2022/03/08 10:00:23;;;;;;;9.43;2.25;;;20.90;70.70;;;;;;4936537;28;95896;-63
2022/03/08 10:02:57;;;;;;;8.00;2.00;;;21.00;70.70;;;;;;4963786;28;96599;-62
2022/03/08 10:05:39;;;;;;;3.97;1.95;;;20.90;70.90;;;;;;4963326;28;97123;-63
2022/03/08 10:08:21;;;;;;;6.72;2.10;;;20.90;70.80;;;;;;4963438;28;95838;-63
2022/03/08 10:11:00;;;;;;;5.43;2.10;;;20.90;70.90;;;;;;4963133;28;95816;-63
2022/03/08 10:13:50;;;;;;;7.13;2.30;;;21.00;70.90;;;;;;4961685;28;96575;-63
2022/03/08 10:16:29;;;;;;;9.95;2.53;;;20.90;70.60;;;;;;4958431;28;95859;-62
2022/03/08 10:19:03;;;;;;;7.43;2.05;;;21.00;70.50;;;;;;4967396;28;95731;-62
2022/03/08 10:21:47;;;;;;;8.52;1.98;;;21.00;70.20;;;;;;4968080;28;95313;-63
2022/03/08 10:24:20;;;;;;;5.38;1.88;;;21.10;70.20;;;;;;4968471;28;95753;-63
2022/03/08 10:27:03;;;;;;;10.30;2.38;;;21.10;70.00;;;;;;4961203;28;95945;-64
2022/03/08 10:29:39;;;;;;;9.45;2.35;;;20.90;71.10;;;;;;4958855;28;95955;-62
2022/03/08 10:32:19;;;;;;;7.03;2.05;;;20.90;70.80;;;;;;4953389;28;100414;-63
2022/03/08 10:34:55;;;;;;;10.73;2.95;;;20.80;70.90;;;;;;4965352;28;95793;-63
2022/03/08 10:37:27;;;;;;;8.75;2.72;;;20.90;70.90;;;;;;4965240;28;95927;-65
2022/03/08 10:40:22;;;;;;;8.48;2.20;;;20.90;70.80;;;;;;4964683;28;95799;-63
2022/03/08 10:43:19;;;;;;;6.53;2.10;;;20.80;71.10;;;;;;4956657;28;95359;-63
2022/03/08 10:45:53;;;;;;;6.07;2.10;;;20.90;71.80;;;;;;4954666;28;95810;-63
2022/03/08 10:48:27;;;;;;;7.60;2.42;;;20.90;70.80;;;;;;4960176;28;95362;-61
2022/03/08 10:50:56;;;;;;;5.25;2.30;;;20.90;70.60;;;;;;4966114;28;96231;-63
2022/03/08 10:53:27;;;;;;;5.90;2.00;;;21.00;71.10;;;;;;4966046;28;95494;-65
2022/03/08 10:55:58;;;;;;;;;;;20.90;70.70;;;;;;4963242;28;95649;-64
2022/03/08 10:58:29;;;;;;;8.25;1.95;;;20.90;70.80;;;;;;4966973;28;96018;-64
2022/03/08 11:01:01;;;;;;;;;;;20.90;69.40;;;;;;4958249;28;95683;-65
2022/03/08 11:03:33;;;;;;;7.88;2.20;;;20.80;70.50;;;;;;4965589;28;95823;-62
2022/03/08 11:06:06;;;;;;;8.40;2.63;;;20.40;69.00;;;;;;4965120;28;95890;-62
2022/03/08 11:08:37;;;;;;;8.75;2.38;;;20.00;70.60;;;;;;4965675;28;96600;-63
2022/03/08 11:11:07;;;;;;;10.27;2.47;;;20.10;71.80;;;;;;4965824;28;95304;-62
2022/03/08 11:13:39;;;;;;;5.88;2.10;;;20.30;72.10;;;;;;4965498;28;95981;-63
2022/03/08 11:16:11;;;;;;;7.38;2.25;;;20.50;71.90;;;;;;4958511;28;95845;-63
2022/03/08 11:18:50;;;;;;;8.57;2.63;;;20.60;71.60;;;;;;4964978;28;95869;-62
2022/03/08 11:21:21;;;;;;;5.78;2.47;;;20.70;71.10;;;;;;4976494;28;95832;-63
2022/03/08 11:23:56;;;;;;;6.68;1.98;;;20.70;71.20;;;;;;4964226;28;95898;-62
2022/03/08 11:26:28;;;;;;;8.98;2.40;;;20.80;71.60;;;;;;4958988;28;96896;-64
2022/03/08 11:29:00;;;;;;;8.00;2.17;;;20.80;71.00;;;;;;4958918;28;95905;-62
2022/03/08 11:31:34;;;;;;;6.85;1.92;;;20.80;71.60;;;;;;4952189;28;96021;-65
2022/03/08 11:34:19;;;;;;;3.17;1.92;;;20.90;71.30;;;;;;4965093;28;96337;-64
2022/03/08 11:37:13;;;;;;;4.22;1.73;;;20.80;71.10;;;;;;4963231;28;95852;-63
2022/03/08 11:39:43;;;;;;;10.25;2.33;;;20.90;71.20;;;;;;4962308;28;95970;-63
2022/03/08 11:42:18;;;;;;;8.10;2.08;;;20.90;71.00;;;;;;4992080;28;96949;-63
2022/03/08 11:45:11;;;;;;;5.60;1.92;;;20.90;70.70;;;;;;4964490;28;95750;-62
2022/03/08 11:47:55;;;;;;;4.78;1.90;;;20.90;71.10;;;;;;4959065;28;95713;-64
2022/03/08 11:50:28;;;;;;;7.50;1.38;;;20.90;70.80;;;;;;4964738;28;96649;-63
2022/03/08 11:53:06;;;;;;;4.30;1.70;;;20.90;70.10;;;;;;4964555;28;96055;-63
2022/03/08 11:55:56;;;;;;;5.90;1.70;;;20.80;70.40;;;;;;4964029;28;95557;-64
2022/03/08 11:58:49;;;;;;;6.73;1.97;;;20.90;69.90;;;;;;4961807;28;95692;-62
2022/03/08 12:01:32;;;;;;;5.95;1.92;;;20.90;69.80;;;;;;4956840;28;101021;-64
2022/03/08 12:04:18;;;;;;;3.90;1.23;;;20.80;70.50;;;;;;4965316;28;96067;-63
2022/03/08 12:06:53;;;;;;;6.60;2.05;;;20.90;70.70;;;;;;4970265;28;96131;-65
2022/03/08 12:09:25;;;;;;;6.05;1.65;;;20.40;71.80;;;;;;4965340;28;95758;-66
2022/03/08 12:11:59;;;;;;;7.00;2.25;;;20.60;72.10;;;;;;4964314;28;96016;-64
2022/03/08 12:14:41;;;;;;;5.13;1.77;;;20.70;71.70;;;;;;4966759;28;96220;-62
2022/03/08 12:17:19;;;;;;;4.75;1.23;;;20.60;71.60;;;;;;4961058;28;95979;-62
2022/03/08 12:19:55;;;;;;;7.20;1.85;;;20.70;71.60;;;;;;4964695;28;95904;-63
2022/03/08 12:22:33;;;;;;;5.95;1.80;;;20.80;71.70;;;;;;4968335;28;98064;-63
2022/03/08 12:25:15;;;;;;;3.83;1.42;;;20.90;71.00;;;;;;4967878;28;96229;-64
2022/03/08 12:27:53;;;;;;;5.80;1.63;;;21.00;71.30;;;;;;4996803;28;95746;-63
2022/03/08 12:30:40;;;;;;;3.63;1.65;;;21.10;71.30;;;;;;4955485;28;95945;-65
2022/03/08 12:33:10;;;;;;;5.32;2.17;;;21.10;71.20;;;;;;4981627;28;103215;-65
2022/03/08 12:35:54;;;;;;;6.65;1.80;;;21.10;71.10;;;;;;4967848;28;95653;-64
2022/03/08 12:38:26;;;;;;;6.00;1.65;;;21.10;71.00;;;;;;4967231;28;95669;-63
2022/03/08 12:41:00;;;;;;;8.18;2.38;;;21.10;71.00;;;;;;4962878;28;95857;-63
2022/03/08 12:43:31;;;;;;;8.60;2.60;;;20.60;70.30;;;;;;4980804;28;97970;-64
2022/03/08 12:46:03;;;;;;;8.85;2.00;;;19.90;71.00;;;;;;4959367;28;95345;-65
2022/03/08 12:48:34;;;;;;;12.07;2.90;;;19.50;73.00;;;;;;4968630;28;96069;-64
2022/03/08 12:51:07;;;;;;;8.82;1.90;;;19.30;72.60;;;;;;4967887;28;95792;-66
2022/03/08 12:53:37;;;;;;;10.07;2.13;;;19.00;74.20;;;;;;4967656;28;96002;-65
2022/03/08 12:56:13;;;;;;;6.72;2.42;;;19.00;74.60;;;;;;4967387;28;95821;-63
2022/03/08 12:58:44;;;;;;;7.60;2.20;;;18.80;75.10;;;;;;4967086;28;95917;-63
2022/03/08 13:01:15;;;;;;;;;;;18.80;75.20;;;;;;4958766;28;96103;-63
2022/03/08 13:03:47;;;;;;;11.40;2.35;;;18.50;74.60;;;;;;4959209;28;96400;-63
2022/03/08 13:06:17;;;;;;;9.23;2.30;;;18.60;76.30;;;;;;4966924;28;96101;-64
2022/03/08 13:08:48;;;;;;;7.63;2.27;;;18.60;75.00;;;;;;4966094;28;95849;-65
2022/03/08 13:11:20;;;;;;;11.38;2.67;;;18.50;74.90;;;;;;4967634;28;95538;-64
2022/03/08 13:13:53;;;;;;;10.85;2.17;;;18.40;75.60;;;;;;4967478;28;96507;-63
2022/03/08 13:16:24;;;;;;;6.10;2.17;;;18.30;75.60;;;;;;4958410;28;95687;-63
2022/03/08 13:19:01;;;;;;;10.38;2.47;;;18.30;76.00;;;;;;4980721;28;95872;-65